sensor_id;sensor_type;location;lat;lon;timestamp;temperature;humidity
19060;DHT22;9663;48.996;8.334;2022-10-13T00:00:26;13.80;61.00
19060;DHT22;9663;48.996;8.334;2022-10-13T00:02:52;13.90;61.00
19060;DHT22;9663;48.996;8.334;2022-10-13T00:05:19;13.80;60.90
19060;DHT22;9663;48.996;8.334;2022-10-13T00:07:44;13.80;61.00
19060;DHT22;9663;48.996;8.334;2022-10-13T00:10:11;13.70;61.00
19060;DHT22;9663;48.996;8.334;2022-10-13T00:12:37;13.70;61.00
19060;DHT22;9663;48.996;8.334;2022-10-13T00:15:05;13.70;61.00
19060;DHT22;9663;48.996;8.334;2022-10-13T00:17:31;13.70;61.00
19060;DHT22;9663;48.996;8.334;2022-10-13T00:19:58;13.80;61.10
19060;DHT22;9663;48.996;8.334;2022-10-13T00:22:23;13.60;61.00
19060;DHT22;9663;48.996;8.334;2022-10-13T00:24:52;13.60;61.20
19060;DHT22;9663;48.996;8.334;2022-10-13T00:27:19;13.60;61.30
19060;DHT22;9663;48.996;8.334;2022-10-13T00:29:45;13.60;61.40
19060;DHT22;9663;48.996;8.334;2022-10-13T00:32:10;13.50;61.40
19060;DHT22;9663;48.996;8.334;2022-10-13T00:34:37;13.50;61.40
19060;DHT22;9663;48.996;8.334;2022-10-13T00:37:04;13.50;61.50
19060;DHT22;9663;48.996;8.334;2022-10-13T00:39:30;13.50;61.50
19060;DHT22;9663;48.996;8.334;2022-10-13T00:41:57;13.50;61.70
19060;DHT22;9663;48.996;8.334;2022-10-13T00:44:59;13.50;61.70
19060;DHT22;9663;48.996;8.334;2022-10-13T00:47:39;13.50;62.70
19060;DHT22;9663;48.996;8.334;2022-10-13T00:50:13;13.60;62.40
19060;DHT22;9663;48.996;8.334;2022-10-13T00:52:41;13.60;62.00
19060;DHT22;9663;48.996;8.334;2022-10-13T00:55:08;13.60;61.90
19060;DHT22;9663;48.996;8.334;2022-10-13T00:57:39;13.60;62.00
19060;DHT22;9663;48.996;8.334;2022-10-13T01:00:08;13.60;61.90
19060;DHT22;9663;48.996;8.334;2022-10-13T01:02:36;13.60;61.80
19060;DHT22;9663;48.996;8.334;2022-10-13T01:05:05;13.80;62.00
19060;DHT22;9663;48.996;8.334;2022-10-13T01:07:33;13.60;62.00
19060;DHT22;9663;48.996;8.334;2022-10-13T01:10:00;13.60;62.00
19060;DHT22;9663;48.996;8.334;2022-10-13T01:15:19;13.60;62.70
19060;DHT22;9663;48.996;8.334;2022-10-13T01:18:16;13.50;62.30
19060;DHT22;9663;48.996;8.334;2022-10-13T01:20:52;13.60;62.90
19060;DHT22;9663;48.996;8.334;2022-10-13T01:38:38;13.60;63.00
19060;DHT22;9663;48.996;8.334;2022-10-13T01:41:18;13.60;63.00
19060;DHT22;9663;48.996;8.334;2022-10-13T01:44:00;13.60;62.70
19060;DHT22;9663;48.996;8.334;2022-10-13T01:46:35;13.60;62.60
19060;DHT22;9663;48.996;8.334;2022-10-13T01:49:06;13.60;62.70
19060;DHT22;9663;48.996;8.334;2022-10-13T01:51:38;13.70;62.70
19060;DHT22;9663;48.996;8.334;2022-10-13T01:54:05;13.70;62.70
19060;DHT22;9663;48.996;8.334;2022-10-13T01:56:30;13.70;62.70
19060;DHT22;9663;48.996;8.334;2022-10-13T01:58:58;13.70;62.70
19060;DHT22;9663;48.996;8.334;2022-10-13T02:04:16;13.80;62.90
19060;DHT22;9663;48.996;8.334;2022-10-13T02:06:54;13.80;63.30
19060;DHT22;9663;48.996;8.334;2022-10-13T02:13:07;13.90;63.50
19060;DHT22;9663;48.996;8.334;2022-10-13T02:15:20;13.90;63.00
19060;DHT22;9663;48.996;8.334;2022-10-13T02:17:50;13.90;62.80
19060;DHT22;9663;48.996;8.334;2022-10-13T02:20:18;14.00;62.80
19060;DHT22;9663;48.996;8.334;2022-10-13T02:22:46;13.90;62.80
19060;DHT22;9663;48.996;8.334;2022-10-13T02:25:17;14.00;62.90
19060;DHT22;9663;48.996;8.334;2022-10-13T02:27:43;14.00;62.90
19060;DHT22;9663;48.996;8.334;2022-10-13T02:30:09;14.00;63.00
19060;DHT22;9663;48.996;8.334;2022-10-13T02:32:44;14.10;63.00
19060;DHT22;9663;48.996;8.334;2022-10-13T02:35:09;14.20;63.00
19060;DHT22;9663;48.996;8.334;2022-10-13T02:37:35;14.20;63.00
19060;DHT22;9663;48.996;8.334;2022-10-13T02:40:00;14.20;63.00
19060;DHT22;9663;48.996;8.334;2022-10-13T02:42:26;14.20;62.90
19060;DHT22;9663;48.996;8.334;2022-10-13T02:44:52;14.20;62.80
19060;DHT22;9663;48.996;8.334;2022-10-13T02:47:17;14.20;62.80
19060;DHT22;9663;48.996;8.334;2022-10-13T02:49:43;14.20;62.80
19060;DHT22;9663;48.996;8.334;2022-10-13T02:52:09;14.30;62.80
19060;DHT22;9663;48.996;8.334;2022-10-13T02:54:34;14.30;62.80
19060;DHT22;9663;48.996;8.334;2022-10-13T02:57:00;14.30;62.90
19060;DHT22;9663;48.996;8.334;2022-10-13T02:59:25;14.30;62.80
19060;DHT22;9663;48.996;8.334;2022-10-13T03:01:51;14.20;62.70
19060;DHT22;9663;48.996;8.334;2022-10-13T03:04:17;14.20;62.70
19060;DHT22;9663;48.996;8.334;2022-10-13T03:06:42;14.20;62.70
19060;DHT22;9663;48.996;8.334;2022-10-13T03:09:09;14.20;62.70
19060;DHT22;9663;48.996;8.334;2022-10-13T03:11:34;14.10;62.70
19060;DHT22;9663;48.996;8.334;2022-10-13T03:14:00;14.10;62.70
19060;DHT22;9663;48.996;8.334;2022-10-13T03:16:26;14.10;62.70
19060;DHT22;9663;48.996;8.334;2022-10-13T03:18:51;14.10;62.70
19060;DHT22;9663;48.996;8.334;2022-10-13T03:21:17;14.00;62.70
19060;DHT22;9663;48.996;8.334;2022-10-13T03:23:42;13.90;62.70
19060;DHT22;9663;48.996;8.334;2022-10-13T03:26:08;13.90;62.80
19060;DHT22;9663;48.996;8.334;2022-10-13T03:28:34;13.90;62.80
19060;DHT22;9663;48.996;8.334;2022-10-13T03:31:04;13.80;62.80
19060;DHT22;9663;48.996;8.334;2022-10-13T03:33:32;13.80;63.00
19060;DHT22;9663;48.996;8.334;2022-10-13T03:36:02;13.70;63.00
19060;DHT22;9663;48.996;8.334;2022-10-13T03:38:31;13.70;63.20
19060;DHT22;9663;48.996;8.334;2022-10-13T03:41:04;13.90;63.30
19060;DHT22;9663;48.996;8.334;2022-10-13T03:43:30;13.70;63.50
19060;DHT22;9663;48.996;8.334;2022-10-13T03:45:57;13.60;63.20
19060;DHT22;9663;48.996;8.334;2022-10-13T03:48:25;13.70;63.40
19060;DHT22;9663;48.996;8.334;2022-10-13T03:50:51;13.70;63.50
19060;DHT22;9663;48.996;8.334;2022-10-13T03:53:17;13.60;63.50
19060;DHT22;9663;48.996;8.334;2022-10-13T03:55:48;13.70;63.60
19060;DHT22;9663;48.996;8.334;2022-10-13T03:58:15;13.70;64.00
19060;DHT22;9663;48.996;8.334;2022-10-13T04:00:40;13.70;63.70
19060;DHT22;9663;48.996;8.334;2022-10-13T04:03:06;13.60;63.70
19060;DHT22;9663;48.996;8.334;2022-10-13T04:05:33;13.70;63.80
19060;DHT22;9663;48.996;8.334;2022-10-13T04:07:59;13.70;64.00
19060;DHT22;9663;48.996;8.334;2022-10-13T04:10:25;13.70;63.80
19060;DHT22;9663;48.996;8.334;2022-10-13T04:12:50;13.70;64.00
19060;DHT22;9663;48.996;8.334;2022-10-13T04:15:16;13.70;64.00
19060;DHT22;9663;48.996;8.334;2022-10-13T04:17:42;13.70;64.00
19060;DHT22;9663;48.996;8.334;2022-10-13T04:20:08;13.80;64.10
19060;DHT22;9663;48.996;8.334;2022-10-13T04:22:34;13.70;64.00
19060;DHT22;9663;48.996;8.334;2022-10-13T04:24:59;13.70;64.00
19060;DHT22;9663;48.996;8.334;2022-10-13T04:27:25;14.00;64.30
19060;DHT22;9663;48.996;8.334;2022-10-13T04:29:52;13.80;64.20
19060;DHT22;9663;48.996;8.334;2022-10-13T04:32:18;13.70;64.20
19060;DHT22;9663;48.996;8.334;2022-10-13T04:34:43;13.80;64.30
19060;DHT22;9663;48.996;8.334;2022-10-13T04:37:09;13.80;64.30
19060;DHT22;9663;48.996;8.334;2022-10-13T04:39:35;13.80;64.40
19060;DHT22;9663;48.996;8.334;2022-10-13T04:42:01;13.90;64.40
19060;DHT22;9663;48.996;8.334;2022-10-13T04:44:26;13.90;64.40
19060;DHT22;9663;48.996;8.334;2022-10-13T04:46:52;14.00;64.40
19060;DHT22;9663;48.996;8.334;2022-10-13T04:49:17;13.90;64.40
19060;DHT22;9663;48.996;8.334;2022-10-13T04:51:43;13.90;64.30
19060;DHT22;9663;48.996;8.334;2022-10-13T04:54:16;14.00;64.40
19060;DHT22;9663;48.996;8.334;2022-10-13T04:56:45;14.00;64.70
19060;DHT22;9663;48.996;8.334;2022-10-13T04:59:11;14.00;64.40
19060;DHT22;9663;48.996;8.334;2022-10-13T05:01:37;13.90;64.20
19060;DHT22;9663;48.996;8.334;2022-10-13T05:04:04;14.00;64.30
19060;DHT22;9663;48.996;8.334;2022-10-13T05:06:36;14.00;64.30
19060;DHT22;9663;48.996;8.334;2022-10-13T05:09:03;14.10;64.70
19060;DHT22;9663;48.996;8.334;2022-10-13T05:11:30;14.00;64.40
19060;DHT22;9663;48.996;8.334;2022-10-13T05:13:57;14.00;64.40
19060;DHT22;9663;48.996;8.334;2022-10-13T05:16:24;14.00;64.40
19060;DHT22;9663;48.996;8.334;2022-10-13T05:18:52;14.00;64.40
19060;DHT22;9663;48.996;8.334;2022-10-13T05:21:22;14.00;64.60
19060;DHT22;9663;48.996;8.334;2022-10-13T05:23:50;14.00;64.60
19060;DHT22;9663;48.996;8.334;2022-10-13T05:26:23;14.00;64.50
19060;DHT22;9663;48.996;8.334;2022-10-13T05:28:58;14.00;64.60
19060;DHT22;9663;48.996;8.334;2022-10-13T05:31:26;14.00;64.80
19060;DHT22;9663;48.996;8.334;2022-10-13T05:33:54;14.00;64.60
19060;DHT22;9663;48.996;8.334;2022-10-13T05:36:22;13.90;64.60
19060;DHT22;9663;48.996;8.334;2022-10-13T05:38:52;14.00;64.70
19060;DHT22;9663;48.996;8.334;2022-10-13T05:41:20;13.90;64.70
19060;DHT22;9663;48.996;8.334;2022-10-13T05:43:52;13.90;64.70
19060;DHT22;9663;48.996;8.334;2022-10-13T05:46:21;13.90;64.70
19060;DHT22;9663;48.996;8.334;2022-10-13T05:48:48;13.90;64.80
19060;DHT22;9663;48.996;8.334;2022-10-13T05:51:26;14.00;64.80
19060;DHT22;9663;48.996;8.334;2022-10-13T05:54:18;13.90;65.40
19060;DHT22;9663;48.996;8.334;2022-10-13T05:56:58;13.90;65.30
19060;DHT22;9663;48.996;8.334;2022-10-13T05:59:29;14.00;65.10
19060;DHT22;9663;48.996;8.334;2022-10-13T06:02:00;13.90;64.80
19060;DHT22;9663;48.996;8.334;2022-10-13T06:04:33;13.90;64.80
19060;DHT22;9663;48.996;8.334;2022-10-13T06:07:02;13.90;65.00
19060;DHT22;9663;48.996;8.334;2022-10-13T06:09:33;13.90;64.80
19060;DHT22;9663;48.996;8.334;2022-10-13T06:12:00;13.90;65.10
19060;DHT22;9663;48.996;8.334;2022-10-13T06:14:25;13.90;64.90
19060;DHT22;9663;48.996;8.334;2022-10-13T06:16:51;13.90;65.00
19060;DHT22;9663;48.996;8.334;2022-10-13T06:19:17;14.00;65.10
19060;DHT22;9663;48.996;8.334;2022-10-13T06:21:42;14.00;65.10
19060;DHT22;9663;48.996;8.334;2022-10-13T06:24:08;13.90;65.00
19060;DHT22;9663;48.996;8.334;2022-10-13T06:26:34;13.90;65.00
19060;DHT22;9663;48.996;8.334;2022-10-13T06:28:59;13.90;65.00
19060;DHT22;9663;48.996;8.334;2022-10-13T06:31:25;13.90;65.10
19060;DHT22;9663;48.996;8.334;2022-10-13T06:33:51;13.90;65.20
19060;DHT22;9663;48.996;8.334;2022-10-13T06:36:17;13.90;65.20
19060;DHT22;9663;48.996;8.334;2022-10-13T06:38:42;14.00;65.30
19060;DHT22;9663;48.996;8.334;2022-10-13T06:41:08;14.00;65.30
19060;DHT22;9663;48.996;8.334;2022-10-13T06:43:33;14.00;65.30
19060;DHT22;9663;48.996;8.334;2022-10-13T06:46:00;14.00;65.30
19060;DHT22;9663;48.996;8.334;2022-10-13T06:48:27;14.10;65.40
19060;DHT22;9663;48.996;8.334;2022-10-13T06:50:53;14.10;65.60
19060;DHT22;9663;48.996;8.334;2022-10-13T06:53:19;14.10;65.60
19060;DHT22;9663;48.996;8.334;2022-10-13T06:55:45;14.20;65.60
19060;DHT22;9663;48.996;8.334;2022-10-13T06:58:11;14.30;65.60
19060;DHT22;9663;48.996;8.334;2022-10-13T07:00:39;14.70;65.80
19060;DHT22;9663;48.996;8.334;2022-10-13T07:03:05;14.60;65.80
19060;DHT22;9663;48.996;8.334;2022-10-13T07:05:31;14.40;65.50
19060;DHT22;9663;48.996;8.334;2022-10-13T07:07:56;14.40;65.40
19060;DHT22;9663;48.996;8.334;2022-10-13T07:10:22;14.40;65.40
19060;DHT22;9663;48.996;8.334;2022-10-13T07:12:48;14.50;65.50
19060;DHT22;9663;48.996;8.334;2022-10-13T07:15:13;14.50;65.50
19060;DHT22;9663;48.996;8.334;2022-10-13T07:17:39;14.60;65.50
19060;DHT22;9663;48.996;8.334;2022-10-13T07:20:05;14.60;65.50
19060;DHT22;9663;48.996;8.334;2022-10-13T07:22:31;14.60;65.50
19060;DHT22;9663;48.996;8.334;2022-10-13T07:24:57;14.70;65.50
19060;DHT22;9663;48.996;8.334;2022-10-13T07:27:23;14.80;65.60
19060;DHT22;9663;48.996;8.334;2022-10-13T07:29:48;14.80;65.60
19060;DHT22;9663;48.996;8.334;2022-10-13T07:32:14;14.80;65.60
19060;DHT22;9663;48.996;8.334;2022-10-13T07:34:41;14.80;65.60
19060;DHT22;9663;48.996;8.334;2022-10-13T07:37:07;14.90;65.70
19060;DHT22;9663;48.996;8.334;2022-10-13T07:39:32;14.90;65.60
19060;DHT22;9663;48.996;8.334;2022-10-13T07:41:58;15.00;65.60
19060;DHT22;9663;48.996;8.334;2022-10-13T07:44:24;15.10;65.60
19060;DHT22;9663;48.996;8.334;2022-10-13T07:46:50;15.20;65.70
19060;DHT22;9663;48.996;8.334;2022-10-13T07:49:16;15.20;65.70
19060;DHT22;9663;48.996;8.334;2022-10-13T07:51:42;15.30;65.80
19060;DHT22;9663;48.996;8.334;2022-10-13T07:54:08;15.40;65.80
19060;DHT22;9663;48.996;8.334;2022-10-13T07:56:34;15.60;65.90
19060;DHT22;9663;48.996;8.334;2022-10-13T07:59:00;15.70;65.80
19060;DHT22;9663;48.996;8.334;2022-10-13T08:01:26;15.70;65.80
19060;DHT22;9663;48.996;8.334;2022-10-13T08:03:54;15.90;65.70
19060;DHT22;9663;48.996;8.334;2022-10-13T08:06:21;15.90;65.60
19060;DHT22;9663;48.996;8.334;2022-10-13T08:08:47;16.10;65.40
19060;DHT22;9663;48.996;8.334;2022-10-13T08:11:14;16.10;65.30
19060;DHT22;9663;48.996;8.334;2022-10-13T08:13:40;16.10;65.10
19060;DHT22;9663;48.996;8.334;2022-10-13T08:16:06;16.20;65.00
19060;DHT22;9663;48.996;8.334;2022-10-13T08:18:32;16.20;65.00
19060;DHT22;9663;48.996;8.334;2022-10-13T08:21:01;16.30;65.00
19060;DHT22;9663;48.996;8.334;2022-10-13T08:23:28;16.30;64.90
19060;DHT22;9663;48.996;8.334;2022-10-13T08:25:54;16.30;64.70
19060;DHT22;9663;48.996;8.334;2022-10-13T08:28:25;16.20;64.60
19060;DHT22;9663;48.996;8.334;2022-10-13T08:30:55;16.30;64.80
19060;DHT22;9663;48.996;8.334;2022-10-13T08:33:25;16.30;64.60
19060;DHT22;9663;48.996;8.334;2022-10-13T08:35:52;16.20;64.60
19060;DHT22;9663;48.996;8.334;2022-10-13T08:38:18;16.30;64.80
19060;DHT22;9663;48.996;8.334;2022-10-13T08:40:48;16.30;64.90
19060;DHT22;9663;48.996;8.334;2022-10-13T08:43:18;16.20;65.80
19060;DHT22;9663;48.996;8.334;2022-10-13T08:45:52;16.20;65.80
19060;DHT22;9663;48.996;8.334;2022-10-13T08:48:29;16.30;65.00
19060;DHT22;9663;48.996;8.334;2022-10-13T08:51:00;16.30;64.90
19060;DHT22;9663;48.996;8.334;2022-10-13T08:53:39;16.40;65.00
19060;DHT22;9663;48.996;8.334;2022-10-13T08:56:27;16.30;65.10
19060;DHT22;9663;48.996;8.334;2022-10-13T08:58:56;16.30;65.60
19060;DHT22;9663;48.996;8.334;2022-10-13T09:01:26;16.30;65.00
19060;DHT22;9663;48.996;8.334;2022-10-13T09:04:19;16.30;65.00
19060;DHT22;9663;48.996;8.334;2022-10-13T09:09:31;16.30;64.90
19060;DHT22;9663;48.996;8.334;2022-10-13T09:11:57;16.30;65.00
19060;DHT22;9663;48.996;8.334;2022-10-13T09:17:11;16.40;65.60
19060;DHT22;9663;48.996;8.334;2022-10-13T09:19:39;16.40;65.40
19060;DHT22;9663;48.996;8.334;2022-10-13T09:22:30;16.50;65.30
19060;DHT22;9663;48.996;8.334;2022-10-13T09:27:47;16.50;65.70
19060;DHT22;9663;48.996;8.334;2022-10-13T09:30:43;16.60;65.80
19060;DHT22;9663;48.996;8.334;2022-10-13T09:35:48;16.90;65.50
19060;DHT22;9663;48.996;8.334;2022-10-13T09:38:36;17.00;65.60
19060;DHT22;9663;48.996;8.334;2022-10-13T09:41:10;17.10;65.40
19060;DHT22;9663;48.996;8.334;2022-10-13T09:49:24;17.60;65.40
19060;DHT22;9663;48.996;8.334;2022-10-13T09:52:13;17.80;65.10
19060;DHT22;9663;48.996;8.334;2022-10-13T09:54:50;17.90;64.80
19060;DHT22;9663;48.996;8.334;2022-10-13T09:57:27;18.00;64.70
19060;DHT22;9663;48.996;8.334;2022-10-13T10:00:26;18.10;64.50
19060;DHT22;9663;48.996;8.334;2022-10-13T10:05:50;18.40;64.30
19060;DHT22;9663;48.996;8.334;2022-10-13T10:08:27;18.50;64.30
19060;DHT22;9663;48.996;8.334;2022-10-13T10:11:01;18.50;64.00
19060;DHT22;9663;48.996;8.334;2022-10-13T10:13:29;18.60;63.70
19060;DHT22;9663;48.996;8.334;2022-10-13T10:16:00;18.70;63.70
19060;DHT22;9663;48.996;8.334;2022-10-13T10:18:47;18.70;63.50
19060;DHT22;9663;48.996;8.334;2022-10-13T10:21:25;18.70;63.50
19060;DHT22;9663;48.996;8.334;2022-10-13T10:24:15;18.80;63.50
19060;DHT22;9663;48.996;8.334;2022-10-13T10:27:15;18.90;63.80
19060;DHT22;9663;48.996;8.334;2022-10-13T10:30:01;19.00;63.70
19060;DHT22;9663;48.996;8.334;2022-10-13T10:32:52;19.10;63.30
19060;DHT22;9663;48.996;8.334;2022-10-13T10:44:03;19.10;62.50
19060;DHT22;9663;48.996;8.334;2022-10-13T10:46:38;19.10;62.60
19060;DHT22;9663;48.996;8.334;2022-10-13T10:49:32;19.10;62.80
19060;DHT22;9663;48.996;8.334;2022-10-13T10:52:07;19.10;62.60
19060;DHT22;9663;48.996;8.334;2022-10-13T10:54:52;19.00;62.30
19060;DHT22;9663;48.996;8.334;2022-10-13T11:01:13;18.90;62.30
19060;DHT22;9663;48.996;8.334;2022-10-13T11:06:55;18.80;62.50
19060;DHT22;9663;48.996;8.334;2022-10-13T11:12:44;18.70;62.80
19060;DHT22;9663;48.996;8.334;2022-10-13T11:15:24;18.70;63.20
19060;DHT22;9663;48.996;8.334;2022-10-13T11:17:53;18.70;63.10
19060;DHT22;9663;48.996;8.334;2022-10-13T11:25:37;18.80;63.20
19060;DHT22;9663;48.996;8.334;2022-10-13T11:31:27;19.00;63.20
19060;DHT22;9663;48.996;8.334;2022-10-13T11:34:26;19.00;63.30
19060;DHT22;9663;48.996;8.334;2022-10-13T11:37:00;19.20;63.60
19060;DHT22;9663;48.996;8.334;2022-10-13T11:39:42;19.50;63.90
19060;DHT22;9663;48.996;8.334;2022-10-13T11:42:40;19.80;64.00
19060;DHT22;9663;48.996;8.334;2022-10-13T11:57:23;21.40;61.00
19060;DHT22;9663;48.996;8.334;2022-10-13T11:59:53;21.50;61.30
19060;DHT22;9663;48.996;8.334;2022-10-13T12:02:22;21.60;60.30
19060;DHT22;9663;48.996;8.334;2022-10-13T12:05:23;21.40;59.90
19060;DHT22;9663;48.996;8.334;2022-10-13T12:07:53;21.40;59.70
19060;DHT22;9663;48.996;8.334;2022-10-13T12:12:55;21.20;59.80
19060;DHT22;9663;48.996;8.334;2022-10-13T12:15:41;21.00;59.80
19060;DHT22;9663;48.996;8.334;2022-10-13T12:18:24;20.90;59.90
19060;DHT22;9663;48.996;8.334;2022-10-13T12:21:02;20.70;60.10
19060;DHT22;9663;48.996;8.334;2022-10-13T12:23:36;20.80;60.30
19060;DHT22;9663;48.996;8.334;2022-10-13T12:26:03;20.70;60.40
19060;DHT22;9663;48.996;8.334;2022-10-13T12:28:45;20.70;60.50
19060;DHT22;9663;48.996;8.334;2022-10-13T12:31:27;20.70;60.50
19060;DHT22;9663;48.996;8.334;2022-10-13T12:34:02;20.70;60.60
19060;DHT22;9663;48.996;8.334;2022-10-13T12:36:33;20.60;60.50
19060;DHT22;9663;48.996;8.334;2022-10-13T12:39:03;20.70;60.50
19060;DHT22;9663;48.996;8.334;2022-10-13T12:41:37;20.60;60.60
19060;DHT22;9663;48.996;8.334;2022-10-13T12:44:10;20.60;60.70
19060;DHT22;9663;48.996;8.334;2022-10-13T12:51:50;20.70;60.80
19060;DHT22;9663;48.996;8.334;2022-10-13T12:54:28;20.70;60.80
19060;DHT22;9663;48.996;8.334;2022-10-13T12:56:59;20.70;60.70
19060;DHT22;9663;48.996;8.334;2022-10-13T12:59:29;20.70;60.80
19060;DHT22;9663;48.996;8.334;2022-10-13T13:02:03;20.80;61.00
19060;DHT22;9663;48.996;8.334;2022-10-13T13:04:45;21.00;60.90
19060;DHT22;9663;48.996;8.334;2022-10-13T13:07:30;20.80;60.70
19060;DHT22;9663;48.996;8.334;2022-10-13T13:10:13;20.80;60.30
19060;DHT22;9663;48.996;8.334;2022-10-13T13:12:41;20.90;60.40
19060;DHT22;9663;48.996;8.334;2022-10-13T13:15:36;20.90;60.60
19060;DHT22;9663;48.996;8.334;2022-10-13T13:18:22;20.80;60.50
19060;DHT22;9663;48.996;8.334;2022-10-13T13:20:55;20.90;60.60
19060;DHT22;9663;48.996;8.334;2022-10-13T13:23:21;21.00;60.60
19060;DHT22;9663;48.996;8.334;2022-10-13T13:25:59;21.00;60.50
19060;DHT22;9663;48.996;8.334;2022-10-13T13:28:34;21.00;60.10
19060;DHT22;9663;48.996;8.334;2022-10-13T13:31:00;20.90;60.20
19060;DHT22;9663;48.996;8.334;2022-10-13T13:33:26;20.80;60.20
19060;DHT22;9663;48.996;8.334;2022-10-13T13:35:52;20.80;60.30
19060;DHT22;9663;48.996;8.334;2022-10-13T13:38:18;20.70;60.40
19060;DHT22;9663;48.996;8.334;2022-10-13T13:40:44;20.70;61.70
19060;DHT22;9663;48.996;8.334;2022-10-13T13:43:10;20.70;60.90
19060;DHT22;9663;48.996;8.334;2022-10-13T13:45:36;20.70;60.80
19060;DHT22;9663;48.996;8.334;2022-10-13T13:48:02;20.80;60.90
19060;DHT22;9663;48.996;8.334;2022-10-13T13:50:33;20.70;60.60
19060;DHT22;9663;48.996;8.334;2022-10-13T13:53:01;20.80;60.60
19060;DHT22;9663;48.996;8.334;2022-10-13T13:55:28;20.80;60.70
19060;DHT22;9663;48.996;8.334;2022-10-13T13:57:54;20.80;60.70
19060;DHT22;9663;48.996;8.334;2022-10-13T14:00:21;20.90;60.90
19060;DHT22;9663;48.996;8.334;2022-10-13T14:02:47;20.90;60.80
19060;DHT22;9663;48.996;8.334;2022-10-13T14:05:13;21.00;60.70
19060;DHT22;9663;48.996;8.334;2022-10-13T14:07:40;21.00;60.60
19060;DHT22;9663;48.996;8.334;2022-10-13T14:10:07;21.00;60.50
19060;DHT22;9663;48.996;8.334;2022-10-13T14:12:34;20.90;60.40
19060;DHT22;9663;48.996;8.334;2022-10-13T14:15:00;20.90;60.30
19060;DHT22;9663;48.996;8.334;2022-10-13T14:17:26;20.90;60.30
19060;DHT22;9663;48.996;8.334;2022-10-13T14:19:53;20.90;60.20
19060;DHT22;9663;48.996;8.334;2022-10-13T14:22:19;20.80;61.00
19060;DHT22;9663;48.996;8.334;2022-10-13T14:24:45;20.80;60.50
19060;DHT22;9663;48.996;8.334;2022-10-13T14:27:11;20.70;60.40
19060;DHT22;9663;48.996;8.334;2022-10-13T14:29:37;20.70;60.50
19060;DHT22;9663;48.996;8.334;2022-10-13T14:32:03;20.70;60.80
19060;DHT22;9663;48.996;8.334;2022-10-13T14:34:28;20.70;60.80
19060;DHT22;9663;48.996;8.334;2022-10-13T14:36:54;20.70;60.90
19060;DHT22;9663;48.996;8.334;2022-10-13T14:39:20;20.70;60.80
19060;DHT22;9663;48.996;8.334;2022-10-13T14:41:46;20.70;60.80
19060;DHT22;9663;48.996;8.334;2022-10-13T14:44:19;20.70;60.80
19060;DHT22;9663;48.996;8.334;2022-10-13T14:46:46;20.70;60.80
19060;DHT22;9663;48.996;8.334;2022-10-13T14:49:12;20.80;60.70
19060;DHT22;9663;48.996;8.334;2022-10-13T14:51:39;20.70;60.80
19060;DHT22;9663;48.996;8.334;2022-10-13T14:54:05;20.60;60.80
19060;DHT22;9663;48.996;8.334;2022-10-13T14:56:37;20.60;60.70
19060;DHT22;9663;48.996;8.334;2022-10-13T14:59:04;20.50;61.00
19060;DHT22;9663;48.996;8.334;2022-10-13T15:01:33;20.40;60.90
19060;DHT22;9663;48.996;8.334;2022-10-13T15:04:00;20.50;61.00
19060;DHT22;9663;48.996;8.334;2022-10-13T15:06:26;21.00;61.50
19060;DHT22;9663;48.996;8.334;2022-10-13T15:08:52;20.60;61.40
19060;DHT22;9663;48.996;8.334;2022-10-13T15:11:19;20.30;61.20
19060;DHT22;9663;48.996;8.334;2022-10-13T15:13:52;20.30;61.20
19060;DHT22;9663;48.996;8.334;2022-10-13T15:16:22;20.20;61.20
19060;DHT22;9663;48.996;8.334;2022-10-13T15:18:52;20.20;61.20
19060;DHT22;9663;48.996;8.334;2022-10-13T15:21:18;20.20;61.40
19060;DHT22;9663;48.996;8.334;2022-10-13T15:23:45;20.20;62.30
19060;DHT22;9663;48.996;8.334;2022-10-13T15:26:14;20.10;61.40
19060;DHT22;9663;48.996;8.334;2022-10-13T15:28:43;20.10;61.70
19060;DHT22;9663;48.996;8.334;2022-10-13T15:31:11;20.20;61.80
19060;DHT22;9663;48.996;8.334;2022-10-13T15:33:44;20.20;61.80
19060;DHT22;9663;48.996;8.334;2022-10-13T15:36:10;20.20;62.00
19060;DHT22;9663;48.996;8.334;2022-10-13T15:38:37;20.20;61.80
19060;DHT22;9663;48.996;8.334;2022-10-13T15:41:03;20.20;61.80
19060;DHT22;9663;48.996;8.334;2022-10-13T15:43:30;20.20;61.80
19060;DHT22;9663;48.996;8.334;2022-10-13T15:46:07;20.20;61.70
19060;DHT22;9663;48.996;8.334;2022-10-13T15:48:37;20.20;61.70
19060;DHT22;9663;48.996;8.334;2022-10-13T15:51:11;20.20;61.70
19060;DHT22;9663;48.996;8.334;2022-10-13T15:53:39;20.10;61.80
19060;DHT22;9663;48.996;8.334;2022-10-13T15:56:05;20.00;61.60
19060;DHT22;9663;48.996;8.334;2022-10-13T15:58:31;20.00;61.70
19060;DHT22;9663;48.996;8.334;2022-10-13T16:00:59;19.90;61.70
19060;DHT22;9663;48.996;8.334;2022-10-13T16:03:24;20.10;62.00
19060;DHT22;9663;48.996;8.334;2022-10-13T16:05:54;19.80;61.90
19060;DHT22;9663;48.996;8.334;2022-10-13T16:08:20;19.80;62.00
19060;DHT22;9663;48.996;8.334;2022-10-13T16:10:45;19.70;62.00
19060;DHT22;9663;48.996;8.334;2022-10-13T16:13:13;19.70;62.10
19060;DHT22;9663;48.996;8.334;2022-10-13T16:15:40;19.60;62.10
19060;DHT22;9663;48.996;8.334;2022-10-13T16:18:06;19.50;62.10
19060;DHT22;9663;48.996;8.334;2022-10-13T16:20:32;19.50;63.00
19060;DHT22;9663;48.996;8.334;2022-10-13T16:23:02;19.50;62.30
19060;DHT22;9663;48.996;8.334;2022-10-13T16:25:29;19.40;62.30
19060;DHT22;9663;48.996;8.334;2022-10-13T16:27:56;19.20;62.30
19060;DHT22;9663;48.996;8.334;2022-10-13T16:30:23;19.20;62.40
19060;DHT22;9663;48.996;8.334;2022-10-13T16:32:49;19.20;62.60
19060;DHT22;9663;48.996;8.334;2022-10-13T16:35:14;19.00;62.60
19060;DHT22;9663;48.996;8.334;2022-10-13T16:37:40;19.00;62.80
19060;DHT22;9663;48.996;8.334;2022-10-13T16:40:06;18.90;62.80
19060;DHT22;9663;48.996;8.334;2022-10-13T16:42:32;18.90;62.90
19060;DHT22;9663;48.996;8.334;2022-10-13T16:44:58;18.90;63.00
19060;DHT22;9663;48.996;8.334;2022-10-13T16:47:23;18.70;63.00
19060;DHT22;9663;48.996;8.334;2022-10-13T16:49:49;18.70;63.20
19060;DHT22;9663;48.996;8.334;2022-10-13T16:52:14;19.10;63.60
19060;DHT22;9663;48.996;8.334;2022-10-13T16:54:40;18.60;63.30
19060;DHT22;9663;48.996;8.334;2022-10-13T16:57:06;18.60;63.40
19060;DHT22;9663;48.996;8.334;2022-10-13T16:59:31;18.70;63.60
19060;DHT22;9663;48.996;8.334;2022-10-13T17:01:57;18.50;63.60
19060;DHT22;9663;48.996;8.334;2022-10-13T17:04:23;18.50;63.70
19060;DHT22;9663;48.996;8.334;2022-10-13T17:06:49;18.40;63.70
19060;DHT22;9663;48.996;8.334;2022-10-13T17:09:14;18.30;63.70
19060;DHT22;9663;48.996;8.334;2022-10-13T17:11:40;18.30;63.80
19060;DHT22;9663;48.996;8.334;2022-10-13T17:14:08;18.20;63.80
19060;DHT22;9663;48.996;8.334;2022-10-13T17:16:35;18.20;63.80
19060;DHT22;9663;48.996;8.334;2022-10-13T17:19:01;18.20;63.80
19060;DHT22;9663;48.996;8.334;2022-10-13T17:21:27;18.10;64.00
19060;DHT22;9663;48.996;8.334;2022-10-13T17:23:54;18.10;64.00
19060;DHT22;9663;48.996;8.334;2022-10-13T17:26:20;18.00;64.00
19060;DHT22;9663;48.996;8.334;2022-10-13T17:28:46;18.10;64.10
19060;DHT22;9663;48.996;8.334;2022-10-13T17:31:16;18.00;64.10